Brokaw, Wisconsin
Current Conditions -  °F | °C
As of 4:54 AM on Tuesday 21 Oct 2014 (Local Time) from KAUW Reporting Station
Overcast Overcast  
Wind Chill: 38°   Ceiling: 2000
Heat Index: 42°   Visibility: 10mi
Dew Point: 34°   Wind: 7mph
Humidity: 73%   Direction: 10°N
Pressure: 30.13"   Gusts: NA
Location:  45.03°N, 89.65°W
Report Text: KAUW 210954Z AUTO 01006KT 10SM OVC020 06/01 A3013 RMK AO2 SLP213 T00560011
Loading
Personal Weather Stations






























Interactive Weather Map New forecast layout! Learn more

10-Day Weather Forecast

Advertisements
Track Severe Weather on mobile